createdAt,value
2023-02-04T08:17:02.110Z,8.37
2023-02-04T08:29:02.577Z,6.12
2023-02-04T08:41:03.040Z,3.93
2023-02-04T08:53:03.478Z,5.32
2023-02-04T09:05:03.946Z,6.68
2023-02-04T09:17:04.391Z,6.53
2023-02-04T09:29:04.842Z,5.60
2023-02-04T09:41:05.334Z,4.67
2023-02-04T09:53:05.772Z,6.23
2023-02-04T10:05:06.615Z,6.31
2023-02-04T10:17:06.617Z,4.13
2023-02-04T10:29:09.545Z,7.13
2023-02-04T10:41:07.543Z,6.58
2023-02-04T10:53:07.990Z,7.22
2023-02-04T11:05:08.439Z,7.10
2023-02-04T11:17:08.920Z,7.39
2023-02-04T11:29:09.350Z,6.56
2023-02-04T11:41:09.787Z,5.98
2023-02-04T11:53:10.262Z,7.50
2023-02-04T12:05:10.715Z,6.48
2023-02-04T12:17:11.189Z,5.75
2023-02-04T12:29:11.634Z,5.05
2023-02-04T12:41:12.063Z,7.55
2023-02-04T12:53:12.555Z,5.97
2023-02-04T13:05:12.959Z,7.04
2023-02-04T13:17:13.430Z,6.27
2023-02-04T13:29:13.874Z,7.91
2023-02-04T13:41:14.357Z,6.09
2023-02-04T13:53:14.772Z,7.10
2023-02-04T14:05:15.216Z,6.68
2023-02-04T14:17:15.690Z,6.34
2023-02-04T14:29:16.201Z,6.83
2023-02-04T14:41:16.587Z,5.74
2023-02-04T14:53:17.047Z,3.87
2023-02-04T15:05:17.519Z,4.05
2023-02-04T15:17:17.986Z,1.94
2023-02-04T15:29:18.389Z,2.97
2023-02-04T15:41:18.877Z,4.39
2023-02-04T15:53:19.321Z,4.95
2023-02-04T16:05:19.806Z,4.63
2023-02-04T16:17:20.267Z,3.95
2023-02-04T16:29:20.653Z,4.96
2023-02-04T16:41:21.127Z,4.17
2023-02-04T16:53:21.596Z,2.84
2023-02-04T17:05:22.106Z,4.64
2023-02-04T17:17:22.477Z,5.39
2023-02-04T17:29:22.936Z,6.65
2023-02-04T17:41:23.406Z,6.47
2023-02-04T17:53:23.808Z,7.73
2023-02-04T18:05:24.295Z,5.62
2023-02-04T18:17:24.745Z,5.62
2023-02-04T18:29:25.195Z,5.21
2023-02-04T18:41:25.603Z,5.56
2023-02-04T18:53:26.056Z,4.60
2023-02-04T19:05:26.543Z,5.89
2023-02-04T19:17:27.039Z,5.67
2023-02-04T19:29:27.389Z,6.73
2023-02-04T19:41:27.852Z,4.28
2023-02-04T19:53:28.341Z,4.22
2023-02-04T20:05:28.774Z,3.99
2023-02-04T20:17:29.256Z,6.74
2023-02-04T20:29:29.716Z,5.29
2023-02-04T20:41:30.138Z,5.44
2023-02-04T20:53:30.637Z,4.07
2023-02-04T21:05:31.233Z,4.58
2023-02-04T21:17:31.468Z,3.57
2023-02-04T21:29:31.937Z,4.43
2023-02-04T21:41:32.434Z,5.09
2023-02-04T21:53:32.861Z,4.30
2023-02-04T22:05:33.697Z,3.99
2023-02-04T22:17:33.770Z,2.27
2023-02-04T22:29:34.234Z,2.72
2023-02-04T22:41:34.682Z,2.54
2023-02-04T22:53:35.085Z,0.67
2023-02-04T23:05:35.844Z,0.94
2023-02-04T23:17:36.017Z,0.73
2023-02-04T23:29:36.468Z,2.08
2023-02-04T23:41:36.941Z,2.67
2023-02-04T23:53:37.371Z,2.89
